createdAt,value
2023-11-05T00:02:45.639Z,46.42
2023-11-05T00:07:37.375Z,46.80
2023-11-05T00:12:29.118Z,46.71
2023-11-05T00:17:20.840Z,46.99
2023-11-05T00:22:12.642Z,46.63
2023-11-05T00:27:04.418Z,47.07
2023-11-05T00:31:56.182Z,47.18
2023-11-05T00:36:48.002Z,47.06
2023-11-05T00:41:39.929Z,47.20
2023-11-05T00:46:32.054Z,46.76
2023-11-05T00:51:23.884Z,46.97
2023-11-05T00:56:15.564Z,46.73
2023-11-05T01:01:07.352Z,47.27
2023-11-05T01:05:59.051Z,47.09
2023-11-05T01:10:51.208Z,46.99
2023-11-05T01:15:43.025Z,47.01
2023-11-05T01:20:34.831Z,47.01
2023-11-05T01:25:27.617Z,46.74
2023-11-05T01:30:20.444Z,47.10
2023-11-05T01:35:12.243Z,47.04
2023-11-05T01:40:04.732Z,47.05
2023-11-05T01:44:56.525Z,46.80
2023-11-05T01:49:48.389Z,46.21
2023-11-05T01:54:42.885Z,46.22
2023-11-05T01:59:35.198Z,45.64
2023-11-05T02:04:27.258Z,45.91
2023-11-05T02:09:19.427Z,45.71
2023-11-05T02:14:17.817Z,45.58
2023-11-05T02:19:10.131Z,45.24
2023-11-05T02:24:02.034Z,45.47
2023-11-05T02:28:53.767Z,45.83
2023-11-05T02:33:46.052Z,45.75
2023-11-05T02:38:38.804Z,45.80
2023-11-05T02:43:30.511Z,45.89
2023-11-05T02:48:22.447Z,46.21
2023-11-05T02:53:16.629Z,46.24
2023-11-05T02:58:08.389Z,46.31
2023-11-05T03:03:00.357Z,46.12
2023-11-05T03:07:52.703Z,46.48
2023-11-05T03:12:44.815Z,46.48
2023-11-05T03:17:38.780Z,46.35
2023-11-05T03:22:30.576Z,46.43
2023-11-05T03:27:22.286Z,46.59
2023-11-05T03:32:14.016Z,46.50
2023-11-05T03:37:06.077Z,46.35
2023-11-05T03:41:57.729Z,46.36
2023-11-05T03:46:49.570Z,46.67
2023-11-05T03:51:41.864Z,46.32
2023-11-05T03:56:34.168Z,46.35
2023-11-05T04:01:25.881Z,46.54
2023-11-05T04:06:18.841Z,46.38
2023-11-05T04:11:10.783Z,46.82
2023-11-05T04:16:03.190Z,46.51
2023-11-05T04:20:54.971Z,46.48
2023-11-05T04:25:46.790Z,46.68
2023-11-05T04:30:38.595Z,46.57
2023-11-05T04:35:30.291Z,46.66
2023-11-05T04:40:22.073Z,46.95
2023-11-05T04:45:15.514Z,46.87
2023-11-05T04:50:08.467Z,46.71
2023-11-05T04:55:01.395Z,46.91
2023-11-05T04:59:53.577Z,46.93
2023-11-05T05:04:45.519Z,47.07
2023-11-05T05:09:38.674Z,46.81
2023-11-05T05:14:30.542Z,46.82
2023-11-05T05:19:22.289Z,46.61
2023-11-05T05:24:14.240Z,47.00
2023-11-05T05:29:06.003Z,47.08
2023-11-05T05:33:57.944Z,46.64
2023-11-05T05:38:49.691Z,47.17
2023-11-05T05:43:41.499Z,46.92
2023-11-05T05:48:34.005Z,47.01
2023-11-05T05:53:25.874Z,46.67
2023-11-05T05:58:20.405Z,47.35
2023-11-05T06:03:12.319Z,46.54
2023-11-05T06:08:04.378Z,44.47
2023-11-05T06:12:56.195Z,42.04
2023-11-05T06:17:47.989Z,41.50
2023-11-05T06:22:40.066Z,41.50
2023-11-05T06:27:31.980Z,41.91
2023-11-05T06:32:23.755Z,42.10
2023-11-05T06:37:15.512Z,42.74
2023-11-05T06:42:07.684Z,42.67
2023-11-05T06:46:59.552Z,43.04
2023-11-05T06:51:51.404Z,43.63
2023-11-05T06:56:43.161Z,44.07
2023-11-05T07:01:35.541Z,44.43
2023-11-05T07:06:27.510Z,43.98
2023-11-05T07:11:19.332Z,44.19
2023-11-05T07:16:11.285Z,44.38
2023-11-05T07:21:03.283Z,44.20
2023-11-05T07:25:55.736Z,44.51
2023-11-05T07:30:47.531Z,45.22
2023-11-05T07:35:39.781Z,45.95
2023-11-05T07:40:31.594Z,46.62
2023-11-05T07:45:24.046Z,47.41
2023-11-05T07:50:16.029Z,47.65
2023-11-05T07:55:13.978Z,48.26
2023-11-05T08:00:08.497Z,48.53
2023-11-05T08:05:06.246Z,48.50
2023-11-05T08:09:58.598Z,48.92
2023-11-05T08:14:50.578Z,48.82
2023-11-05T08:19:42.934Z,49.19
2023-11-05T08:24:36.168Z,49.14
2023-11-05T08:29:28.836Z,49.39
2023-11-05T08:34:20.848Z,48.84
2023-11-05T08:39:12.715Z,49.53
2023-11-05T08:44:04.746Z,48.28
2023-11-05T08:48:56.598Z,45.18
2023-11-05T08:53:48.602Z,44.84
2023-11-05T08:58:40.298Z,47.34
2023-11-05T09:03:32.130Z,46.99
2023-11-05T09:08:24.966Z,46.54
2023-11-05T09:13:16.904Z,46.75
2023-11-05T09:18:08.894Z,44.64
2023-11-05T09:23:01.048Z,44.03
2023-11-05T09:27:53.067Z,43.88
2023-11-05T09:32:45.774Z,43.72
2023-11-05T09:37:37.788Z,43.72
2023-11-05T09:42:32.477Z,43.65
2023-11-05T09:47:24.768Z,43.67
2023-11-05T09:52:18.128Z,43.76
2023-11-05T09:57:10.416Z,43.60
2023-11-05T10:02:02.248Z,44.32
2023-11-05T10:06:54.660Z,44.26
2023-11-05T10:11:46.583Z,44.83
2023-11-05T10:16:38.681Z,44.72
2023-11-05T10:21:39.092Z,44.51
2023-11-05T10:26:32.942Z,45.59
2023-11-05T10:31:26.682Z,45.37
2023-11-05T10:36:19.970Z,45.30
2023-11-05T10:41:13.953Z,45.57
2023-11-05T10:46:07.598Z,45.51
2023-11-05T10:51:01.320Z,45.54
2023-11-05T10:55:53.177Z,47.88
2023-11-05T11:00:45.849Z,47.89
2023-11-05T11:05:43.960Z,49.61
2023-11-05T11:10:40.686Z,49.65
2023-11-05T11:15:34.390Z,48.65
2023-11-05T11:20:27.407Z,49.93
2023-11-05T11:25:20.628Z,50.49
2023-11-05T11:30:13.074Z,51.13
2023-11-05T11:35:08.510Z,49.80
2023-11-05T11:40:01.454Z,49.94
2023-11-05T11:44:54.502Z,49.48
2023-11-05T11:49:47.090Z,49.77
2023-11-05T11:54:38.930Z,50.21
2023-11-05T11:59:30.880Z,50.83
2023-11-05T12:04:24.607Z,52.31
2023-11-05T12:09:24.165Z,52.78
2023-11-05T12:14:22.543Z,52.89
2023-11-05T12:19:16.093Z,53.22
2023-11-05T12:24:10.707Z,53.20
2023-11-05T12:29:02.618Z,53.54
2023-11-05T12:33:56.564Z,53.47
2023-11-05T12:38:48.739Z,53.57
2023-11-05T12:43:41.619Z,53.78
2023-11-05T12:48:34.202Z,53.61
2023-11-05T12:53:26.200Z,53.85
2023-11-05T12:58:18.929Z,54.05
2023-11-05T13:03:10.867Z,54.00
2023-11-05T13:08:03.339Z,54.19
2023-11-05T13:12:55.072Z,53.83
2023-11-05T13:17:47.058Z,54.04
2023-11-05T13:22:41.865Z,53.50
2023-11-05T13:27:34.875Z,53.36
2023-11-05T13:32:26.797Z,53.06
2023-11-05T13:37:20.278Z,53.15
2023-11-05T13:42:12.398Z,53.14
2023-11-05T13:47:04.424Z,53.41
2023-11-05T13:51:56.153Z,53.54
2023-11-05T13:56:49.548Z,50.89
2023-11-05T14:01:41.307Z,50.77
2023-11-05T14:06:33.153Z,51.64
2023-11-05T14:11:25.457Z,52.14
2023-11-05T14:16:18.245Z,52.09
2023-11-05T14:21:10.083Z,51.15
2023-11-05T14:26:02.336Z,50.62
2023-11-05T14:30:55.709Z,49.96
2023-11-05T14:35:47.639Z,49.10
2023-11-05T14:40:39.459Z,48.90
2023-11-05T14:45:33.023Z,48.72
2023-11-05T14:50:27.265Z,47.91
2023-11-05T14:55:19.102Z,48.25
2023-11-05T15:00:12.690Z,47.57
2023-11-05T15:05:05.935Z,47.49
2023-11-05T15:09:58.445Z,47.47
2023-11-05T15:14:50.316Z,47.03
2023-11-05T15:19:42.108Z,46.59
2023-11-05T15:24:33.912Z,46.84
2023-11-05T15:29:25.863Z,46.50
2023-11-05T15:34:17.809Z,46.45
2023-11-05T15:39:11.509Z,45.96
2023-11-05T15:44:06.607Z,45.77
2023-11-05T15:48:59.214Z,45.36
2023-11-05T15:53:51.620Z,45.43
2023-11-05T15:58:43.552Z,45.48
2023-11-05T16:03:37.679Z,45.19
2023-11-05T16:08:29.990Z,45.35
2023-11-05T16:13:22.068Z,46.10
2023-11-05T16:18:14.432Z,46.43
2023-11-05T16:23:06.440Z,46.66
2023-11-05T16:27:58.260Z,47.15
2023-11-05T16:32:50.088Z,47.56
2023-11-05T16:37:41.960Z,47.56
2023-11-05T16:42:33.674Z,47.68
2023-11-05T16:47:25.539Z,48.06
2023-11-05T16:52:19.360Z,47.92
2023-11-05T16:57:11.335Z,48.17
2023-11-05T17:02:03.910Z,48.13
2023-11-05T17:06:55.871Z,48.06
2023-11-05T17:11:47.718Z,48.16
2023-11-05T17:16:43.525Z,48.28
2023-11-05T17:21:35.996Z,48.30
2023-11-05T17:26:27.695Z,48.60
2023-11-05T17:31:19.553Z,48.82
2023-11-05T17:36:14.320Z,48.56
2023-11-05T17:41:06.310Z,47.75
2023-11-05T17:45:58.140Z,48.27
2023-11-05T17:50:49.896Z,48.32
2023-11-05T17:55:41.719Z,48.53
2023-11-05T18:00:33.570Z,48.02
2023-11-05T18:05:25.516Z,47.87
2023-11-05T18:10:17.463Z,48.46
2023-11-05T18:15:10.236Z,48.11
2023-11-05T18:20:02.603Z,48.41
2023-11-05T18:24:54.323Z,48.82
2023-11-05T18:29:46.491Z,48.62
2023-11-05T18:34:38.322Z,48.81
2023-11-05T18:39:33.809Z,48.76
2023-11-05T18:44:25.539Z,48.65
2023-11-05T18:49:17.539Z,48.73
2023-11-05T18:54:11.582Z,48.63
2023-11-05T18:59:04.871Z,48.69
2023-11-05T19:03:56.841Z,48.81
2023-11-05T19:08:48.826Z,49.05
2023-11-05T19:13:40.589Z,49.03
2023-11-05T19:18:32.377Z,48.63
2023-11-05T19:23:24.138Z,48.47
2023-11-05T19:28:17.539Z,48.87
2023-11-05T19:33:09.659Z,48.52
2023-11-05T19:38:01.471Z,48.67
2023-11-05T19:42:53.430Z,48.38
2023-11-05T19:47:45.432Z,47.69
2023-11-05T19:52:37.195Z,47.12
2023-11-05T19:57:29.175Z,46.52
2023-11-05T20:02:22.747Z,46.19
2023-11-05T20:07:16.639Z,45.26
2023-11-05T20:12:08.883Z,44.96
2023-11-05T20:17:00.693Z,44.85
2023-11-05T20:21:54.599Z,44.93
2023-11-05T20:26:47.096Z,44.79
2023-11-05T20:31:39.224Z,44.36
2023-11-05T20:36:32.566Z,44.36
2023-11-05T20:41:24.957Z,44.96
2023-11-05T20:46:17.823Z,44.91
2023-11-05T20:51:23.421Z,45.12
2023-11-05T20:56:15.858Z,45.29
2023-11-05T21:01:08.284Z,45.02
2023-11-05T21:06:01.641Z,45.15
2023-11-05T21:10:58.074Z,45.35
2023-11-05T21:15:52.039Z,45.49
2023-11-05T21:20:44.551Z,45.64
2023-11-05T21:25:36.510Z,46.17
2023-11-05T21:30:28.734Z,45.95
2023-11-05T21:35:20.837Z,46.16
2023-11-05T21:40:13.719Z,46.22
2023-11-05T21:45:06.106Z,47.36
2023-11-05T21:49:57.892Z,46.46
2023-11-05T21:54:49.987Z,46.52
2023-11-05T21:59:42.100Z,46.64
2023-11-05T22:04:37.101Z,46.84
2023-11-05T22:09:32.003Z,47.00
2023-11-05T22:14:23.827Z,46.82
2023-11-05T22:19:16.157Z,47.24
2023-11-05T22:24:09.079Z,47.07
2023-11-05T22:29:01.760Z,47.34
2023-11-05T22:33:54.603Z,47.03
2023-11-05T22:38:46.422Z,47.46
2023-11-05T22:43:38.131Z,47.16
2023-11-05T22:48:29.947Z,47.16
2023-11-05T22:53:21.818Z,47.58
2023-11-05T22:58:13.580Z,47.67
2023-11-05T23:03:05.512Z,47.35
2023-11-05T23:07:57.491Z,47.34
2023-11-05T23:12:49.404Z,47.80
2023-11-05T23:17:41.538Z,47.72
2023-11-05T23:22:33.633Z,47.37
2023-11-05T23:27:25.431Z,47.74
2023-11-05T23:32:17.280Z,47.51
2023-11-05T23:37:09.074Z,47.84
2023-11-05T23:42:00.920Z,47.53
2023-11-05T23:46:52.816Z,47.55
2023-11-05T23:51:44.638Z,47.74
2023-11-05T23:56:36.371Z,47.58
